Time;durP1;ratioP1;P1;durP2;ratioP2;P2;SDS_P1;SDS_P2;PMS_P1;PMS_P2;Temp;Humidity;BMP_temperature;BMP_pressure;BME280_temperature;BME280_humidity;BME280_pressure;Samples;Min_cycle;Max_cycle;Signal;HPM_P1;HPM_P2
2022/01/18 00:01:54;;;;;;;48.63;9.00;;;6.60;99.90;;;;;;5053930;28;20041;-64
2022/01/18 00:04:22;;;;;;;40.03;8.18;;;6.60;99.90;;;;;;5069256;28;20082;-64
2022/01/18 00:06:51;;;;;;;41.20;6.75;;;6.50;99.90;;;;;;5052277;28;20043;-64
2022/01/18 00:09:21;;;;;;;43.25;6.93;;;6.30;99.90;;;;;;5053475;28;20383;-64
2022/01/18 00:11:58;;;;;;;50.83;7.63;;;;;;;;;;5052771;28;20418;-64
2022/01/18 00:14:28;;;;;;;40.25;7.22;;;6.30;99.90;;;;;;5052448;28;20067;-63
2022/01/18 00:17:16;;;;;;;48.13;7.68;;;6.40;99.90;;;;;;5052026;28;20603;-63
2022/01/18 00:19:51;;;;;;;45.47;9.52;;;6.50;99.90;;;;;;5035768;28;20090;-63
2022/01/18 00:22:18;;;;;;;44.78;6.88;;;6.30;99.90;;;;;;5052647;28;20049;-63
2022/01/18 00:24:44;;;;;;;56.72;8.45;;;;;;;;;;5052357;28;20489;-63
2022/01/18 00:27:14;;;;;;;42.83;7.30;;;6.30;99.90;;;;;;5052664;28;20094;-63
2022/01/18 00:29:51;;;;;;;46.78;6.70;;;6.30;99.90;;;;;;5053222;28;20037;-63
2022/01/18 00:32:32;;;;;;;46.83;8.05;;;6.30;99.90;;;;;;5053454;28;20041;-63
2022/01/18 00:34:58;;;;;;;48.97;6.35;;;6.30;99.90;;;;;;5052237;28;20380;-63
2022/01/18 00:37:34;;;;;;;43.38;7.63;;;6.30;99.90;;;;;;5053306;28;20056;-63
2022/01/18 00:40:00;;;;;;;45.70;8.63;;;6.40;99.90;;;;;;5053324;28;20064;-63
2022/01/18 00:42:26;;;;;;;46.70;7.95;;;6.20;99.90;;;;;;5051772;28;20508;-64
2022/01/18 00:44:53;;;;;;;30.38;6.43;;;;;;;;;;5052096;28;20045;-63
2022/01/18 00:47:19;;;;;;;35.85;6.93;;;6.20;99.90;;;;;;5053296;28;20059;-64
2022/01/18 00:49:47;;;;;;;63.63;7.95;;;;;;;;;;5053297;28;20411;-63
2022/01/18 00:52:15;;;;;;;45.08;6.53;;;6.10;99.90;;;;;;5055485;28;20049;-63
2022/01/18 00:54:44;;;;;;;48.40;6.93;;;6.20;99.90;;;;;;5054966;28;20044;-64
2022/01/18 00:57:10;;;;;;;49.65;8.52;;;6.10;99.90;;;;;;5073101;28;20521;-63
2022/01/18 00:59:39;;;;;;;50.90;9.77;;;;;;;;;;5073191;28;20032;-63
2022/01/18 01:02:05;;;;;;;49.05;8.07;;;6.10;99.90;;;;;;5054960;28;20052;-63
2022/01/18 01:04:35;;;;;;;49.63;6.70;;;6.10;99.90;;;;;;5073052;28;20032;-63
2022/01/18 01:07:01;;;;;;;45.55;7.32;;;6.20;99.90;;;;;;5073159;28;20049;-64
2022/01/18 01:09:26;;;;;;;51.75;6.88;;;6.00;99.90;;;;;;5054881;28;20055;-64
2022/01/18 01:11:52;;;;;;;46.67;7.63;;;6.10;99.90;;;;;;5071871;28;20091;-63
2022/01/18 01:14:22;;;;;;;43.95;7.40;;;;;;;;;;5055420;28;20153;-63
2022/01/18 01:32:11;;;;;;;33.63;6.00;;;;;;;;;;5038624;28;20563;-63
2022/01/18 01:33:41;;;;;;;35.70;6.57;;;;;;;;;;5058684;28;20044;-63
2022/01/18 01:44:05;;;;;;;42.55;6.97;;;6.10;99.90;;;;;;5076721;28;20127;-63
2022/01/18 01:46:32;;;;;;;45.22;9.20;;;6.20;99.90;;;;;;5041375;28;20044;-64
2022/01/18 01:49:00;;;;;;;43.72;6.90;;;;;;;;;;5058689;28;20086;-63
2022/01/18 01:51:30;;;;;;;41.70;6.18;;;6.00;99.90;;;;;;5049480;28;20075;-63
2022/01/18 01:54:07;;;;;;;38.47;6.50;;;6.20;99.90;;;;;;5056574;28;20052;-63
2022/01/18 01:56:34;;;;;;;35.88;7.70;;;6.30;99.90;;;;;;5038646;28;20087;-64
2022/01/18 01:59:01;;;;;;;36.80;6.30;;;6.20;99.90;;;;;;5056495;28;20076;-63
2022/01/18 02:01:27;;;;;;;45.20;7.10;;;6.40;99.90;;;;;;5076426;28;20393;-63
2022/01/18 02:03:52;;;;;;;44.35;7.32;;;6.20;99.90;;;;;;5058652;28;20541;-63
2022/01/18 02:06:19;;;;;;;46.80;8.60;;;6.00;99.90;;;;;;5058265;28;20124;-63
2022/01/18 02:08:45;;;;;;;36.75;7.22;;;6.10;99.90;;;;;;5058048;28;20088;-63
2022/01/18 02:11:12;;;;;;;36.40;7.63;;;6.30;99.90;;;;;;5058330;28;20079;-63
2022/01/18 02:13:38;;;;;;;57.17;7.20;;;;;;;;;;5058516;28;20074;-63
2022/01/18 02:24:02;;;;;;;33.85;7.18;;;6.30;99.90;;;;;;5060908;28;20494;-63
2022/01/18 02:26:28;;;;;;;44.53;8.35;;;6.10;99.90;;;;;;5076363;28;20467;-63
2022/01/18 02:28:57;;;;;;;53.17;8.13;;;6.20;99.90;;;;;;5057875;28;20076;-63
2022/01/18 02:31:23;;;;;;;33.53;6.03;;;6.40;99.90;;;;;;5075714;28;20047;-63
2022/01/18 02:33:48;;;;;;;30.13;6.43;;;6.20;99.90;;;;;;5076140;28;20044;-63
2022/01/18 02:36:14;;;;;;;30.95;6.93;;;6.20;99.90;;;;;;5057880;28;20047;-64
2022/01/18 02:38:40;;;;;;;27.85;5.70;;;;;;;;;;5057857;28;20044;-64
2022/01/18 02:41:07;;;;;;;19.00;5.78;;;6.10;99.90;;;;;;5058053;28;20063;-63
2022/01/18 02:43:50;;;;;;;32.10;6.88;;;6.30;99.90;;;;;;5057653;28;20044;-63
2022/01/18 02:46:17;;;;;;;20.05;5.00;;;6.30;99.90;;;;;;5057669;28;20036;-63
2022/01/18 02:48:42;;;;;;;29.52;5.97;;;6.20;99.90;;;;;;5075920;28;20064;-63
2022/01/18 02:51:09;;;;;;;24.10;4.68;;;6.10;99.90;;;;;;5075788;28;20071;-64
2022/01/18 02:53:52;;;;;;;28.92;5.70;;;6.20;99.90;;;;;;5057940;28;20028;-64
2022/01/18 02:56:17;;;;;;;23.38;6.00;;;6.20;99.90;;;;;;5075581;28;20090;-64
2022/01/18 02:58:43;;;;;;;19.83;5.43;;;;;;;;;;5057419;28;20485;-63
2022/01/18 03:03:53;;;;;;;21.88;5.15;;;;;;;;;;5057379;28;20052;-63
2022/01/18 03:06:19;;;;;;;25.10;4.85;;;6.20;99.90;;;;;;5057141;28;20046;-63
2022/01/18 03:08:45;;;;;;;35.08;6.47;;;;;;;;;;5056641;28;20052;-63
2022/01/18 03:11:11;;;;;;;17.73;5.03;;;;;;;;;;5057322;28;20040;-63
2022/01/18 03:13:37;;;;;;;21.63;5.57;;;6.30;99.90;;;;;;5057442;28;20040;-63
2022/01/18 03:16:02;;;;;;;30.73;6.47;;;6.30;99.90;;;;;;5057518;28;20040;-64
2022/01/18 03:18:28;;;;;;;20.92;4.75;;;6.30;99.90;;;;;;5056951;28;20501;-64
2022/01/18 03:20:55;;;;;;;23.55;5.85;;;6.20;99.90;;;;;;5074999;28;20036;-63
2022/01/18 03:23:22;;;;;;;18.48;4.50;;;6.50;99.90;;;;;;5057191;28;20398;-64
2022/01/18 03:25:56;;;;;;;15.40;4.80;;;6.20;99.90;;;;;;5057321;28;20051;-64
2022/01/18 03:28:23;;;;;;;22.58;5.30;;;6.20;99.90;;;;;;5073752;28;20063;-63
2022/01/18 03:30:53;;;;;;;16.92;4.07;;;6.10;99.90;;;;;;5074656;28;20064;-64
2022/01/18 03:33:21;;;;;;;22.30;4.82;;;5.90;99.90;;;;;;5074835;28;20465;-64
2022/01/18 03:35:48;;;;;;;17.13;4.38;;;5.90;99.90;;;;;;5040350;28;20041;-63
2022/01/18 03:38:15;;;;;;;13.27;4.80;;;5.80;99.90;;;;;;5074509;28;20440;-63
2022/01/18 03:40:41;;;;;;;20.45;5.03;;;5.70;99.90;;;;;;5056434;28;20458;-64
2022/01/18 03:43:11;;;;;;;11.77;3.70;;;5.70;99.90;;;;;;5056796;28;20059;-63
2022/01/18 03:45:45;;;;;;;16.48;4.55;;;5.50;99.90;;;;;;5074490;28;20040;-64
2022/01/18 03:48:37;;;;;;;26.50;4.15;;;5.90;99.90;;;;;;5056829;28;20044;-64
2022/01/18 03:51:04;;;;;;;33.05;5.25;;;5.60;99.90;;;;;;5074059;28;20389;-64
2022/01/18 03:53:30;;;;;;;27.95;5.63;;;5.60;99.90;;;;;;5074301;28;20040;-63
2022/01/18 03:55:56;;;;;;;28.95;4.93;;;5.50;99.90;;;;;;5073398;28;20044;-63
2022/01/18 03:58:22;;;;;;;26.10;5.60;;;5.60;99.90;;;;;;5074659;28;20055;-64
2022/01/18 04:00:50;;;;;;;49.35;5.85;;;;;;;;;;5056628;28;20048;-64
2022/01/18 04:03:16;;;;;;;75.07;7.25;;;5.70;99.90;;;;;;5056777;28;20063;-64
2022/01/18 04:05:41;;;;;;;37.30;5.68;;;5.80;99.90;;;;;;5074896;28;20040;-64
2022/01/18 04:08:07;;;;;;;37.83;5.25;;;5.70;99.90;;;;;;5074458;28;20043;-63
2022/01/18 04:10:32;;;;;;;34.90;5.95;;;5.60;99.90;;;;;;5074425;28;20137;-64
2022/01/18 04:12:59;;;;;;;13.95;4.93;;;5.70;99.90;;;;;;5074424;28;20046;-64
2022/01/18 04:15:24;;;;;;;16.25;4.72;;;5.60;99.90;;;;;;5074627;28;20040;-63
2022/01/18 04:28:56;;;;;;;10.07;4.35;;;5.70;99.90;;;;;;5074056;28;20132;-64
2022/01/18 04:31:23;;;;;;;14.02;5.18;;;5.70;99.90;;;;;;5039419;28;20036;-64
2022/01/18 04:33:49;;;;;;;10.57;4.13;;;;;;;;;;5073001;28;20047;-64
2022/01/18 04:36:15;;;;;;;12.43;5.95;;;5.70;99.90;;;;;;5074071;28;20037;-64
2022/01/18 04:38:41;;;;;;;13.45;5.70;;;5.80;99.90;;;;;;5073935;28;20033;-64
2022/01/18 04:41:10;;;;;;;9.82;5.28;;;5.70;99.90;;;;;;5055537;28;20402;-64
2022/01/18 04:48:24;;;;;;;11.25;5.57;;;5.90;99.90;;;;;;5072438;28;20045;-64
2022/01/18 04:49:07;;;;;;;18.42;4.93;;;5.80;99.90;;;;;;5073250;28;20048;-64
2022/01/18 04:51:33;;;;;;;16.27;5.03;;;5.80;99.90;;;;;;5072544;28;20040;-64
2022/01/18 04:54:01;;;;;;;14.48;5.15;;;6.00;99.90;;;;;;5073616;28;20040;-63
2022/01/18 04:57:51;;;;;;;14.07;5.43;;;5.90;99.90;;;;;;5073322;28;20048;-64
2022/01/18 04:59:17;;;;;;;17.00;5.72;;;5.90;99.90;;;;;;5055352;28;20486;-64
2022/01/18 05:01:45;;;;;;;15.05;5.03;;;5.90;99.90;;;;;;5055083;28;20049;-64
2022/01/18 05:04:11;;;;;;;18.20;5.10;;;5.90;99.90;;;;;;5076203;28;20037;-64
2022/01/18 05:06:37;;;;;;;16.15;4.95;;;6.00;99.90;;;;;;5076212;28;20044;-64
2022/01/18 05:09:09;;;;;;;15.95;5.22;;;;;;;;;;5059210;28;20091;-64
2022/01/18 05:11:43;;;;;;;18.67;5.60;;;5.90;99.90;;;;;;5076224;28;20041;-64
2022/01/18 05:14:42;;;;;;;9.07;4.22;;;;;;;;;;5075929;28;20086;-64
2022/01/18 05:17:10;;;;;;;12.63;4.93;;;5.90;99.90;;;;;;5056116;28;20048;-64
2022/01/18 05:19:44;;;;;;;13.60;4.65;;;5.80;99.90;;;;;;5059205;28;20548;-63
2022/01/18 05:24:54;;;;;;;18.80;5.75;;;5.80;99.90;;;;;;5058940;28;20053;-63
2022/01/18 05:27:19;;;;;;;15.35;4.65;;;5.90;99.90;;;;;;5076831;28;20037;-64
2022/01/18 05:29:45;;;;;;;13.77;4.57;;;5.90;99.90;;;;;;5073635;28;20062;-64
2022/01/18 05:32:11;;;;;;;13.10;4.10;;;;;;;;;;5053563;28;20066;-65
2022/01/18 05:34:36;;;;;;;11.70;4.05;;;5.90;99.90;;;;;;5056095;28;20044;-64
2022/01/18 05:37:02;;;;;;;16.73;4.65;;;5.80;99.90;;;;;;5057789;28;20115;-64
2022/01/18 05:39:27;;;;;;;15.10;4.68;;;5.80;99.90;;;;;;5075610;28;20040;-64
2022/01/18 05:41:53;;;;;;;13.60;4.40;;;;;;;;;;5075637;28;20519;-65
2022/01/18 05:44:19;;;;;;;10.85;5.28;;;5.90;99.90;;;;;;5057089;28;20430;-63
2022/01/18 05:46:45;;;;;;;16.40;5.15;;;6.00;99.90;;;;;;5075177;28;20032;-64
2022/01/18 05:49:11;;;;;;;13.50;4.65;;;;;;;;;;5060351;28;20487;-64
2022/01/18 05:51:37;;;;;;;20.23;5.05;;;;;;;;;;5051401;28;20049;-64
2022/01/18 05:54:03;;;;;;;11.63;4.68;;;6.10;99.90;;;;;;5052838;28;20540;-63
2022/01/18 05:56:30;;;;;;;15.65;5.28;;;;;;;;;;5054240;28;20429;-64
2022/01/18 05:58:59;;;;;;;20.90;5.05;;;6.10;99.90;;;;;;5053750;28;20043;-64
2022/01/18 06:01:27;;;;;;;15.13;4.75;;;6.00;99.90;;;;;;5053582;28;20052;-63
2022/01/18 06:09:04;;;;;;;22.50;5.63;;;;;;;;;;5087385;28;20056;-64
2022/01/18 06:11:30;;;;;;;19.17;4.78;;;;;;;;;;5082018;28;20075;-65
2022/01/18 06:13:55;;;;;;;17.13;5.03;;;;;;;;;;5070079;28;20048;-65
2022/01/18 06:16:21;;;;;;;20.65;5.53;;;;;;;;;;5085543;28;20509;-64
2022/01/18 06:18:47;;;;;;;13.73;4.65;;;6.20;99.90;;;;;;5091734;28;20847;-64
2022/01/18 06:21:13;;;;;;;13.23;5.40;;;;;;;;;;5073578;28;20144;-64
2022/01/18 06:23:38;;;;;;;13.13;5.18;;;6.10;99.90;;;;;;5091938;28;20123;-65
2022/01/18 06:26:05;;;;;;;19.20;4.72;;;;;;;;;;5074408;28;20036;-64
2022/01/18 06:28:32;;;;;;;20.08;5.57;;;6.20;99.90;;;;;;5077718;28;20051;-63
2022/01/18 06:30:58;;;;;;;12.80;4.75;;;;;;;;;;5095561;28;20036;-63
2022/01/18 06:33:23;;;;;;;14.95;5.40;;;6.10;99.90;;;;;;5095462;28;20040;-62
2022/01/18 06:35:50;;;;;;;14.52;5.30;;;6.10;99.90;;;;;;5094437;28;20447;-63
2022/01/18 06:38:15;;;;;;;16.70;5.13;;;6.10;99.90;;;;;;5087547;28;20478;-64
2022/01/18 06:40:41;;;;;;;11.77;5.10;;;6.10;99.90;;;;;;5087949;28;20093;-64
2022/01/18 06:43:06;;;;;;;15.23;5.57;;;6.30;99.90;;;;;;5069799;28;20036;-64
2022/01/18 06:45:32;;;;;;;15.07;5.15;;;6.20;99.90;;;;;;5094274;28;20040;-63
2022/01/18 06:47:58;;;;;;;18.27;5.10;;;6.10;99.90;;;;;;5076986;28;20130;-63
2022/01/18 06:50:24;;;;;;;18.95;4.78;;;6.00;99.90;;;;;;5081038;28;20250;-62
2022/01/18 06:52:49;;;;;;;13.77;4.60;;;5.90;99.90;;;;;;5054821;28;20044;-62
2022/01/18 06:55:15;;;;;;;13.30;4.90;;;6.20;99.90;;;;;;5055002;28;20402;-63
2022/01/18 06:57:40;;;;;;;13.82;5.90;;;6.10;99.90;;;;;;5054587;28;20436;-62
2022/01/18 07:00:07;;;;;;;15.05;5.10;;;6.00;99.90;;;;;;5056937;28;20037;-63
2022/01/18 07:02:33;;;;;;;8.80;4.00;;;6.10;99.90;;;;;;5046424;28;20045;-63
2022/01/18 07:04:58;;;;;;;17.50;5.43;;;6.10;99.90;;;;;;5070899;28;20037;-63
2022/01/18 07:07:24;;;;;;;21.17;5.75;;;6.00;99.90;;;;;;5070447;28;20037;-63
2022/01/18 07:09:50;;;;;;;21.23;5.55;;;5.90;99.90;;;;;;5063636;28;20111;-63
2022/01/18 07:12:17;;;;;;;26.90;5.60;;;6.10;99.90;;;;;;5055769;28;20044;-62
2022/01/18 07:14:44;;;;;;;16.67;5.22;;;6.20;99.90;;;;;;5052441;28;20055;-62
2022/01/18 07:17:10;;;;;;;14.80;4.50;;;;;;;;;;5051987;28;20048;-63
2022/01/18 07:19:37;;;;;;;11.40;4.13;;;6.10;99.90;;;;;;5048547;28;20055;-63
2022/01/18 07:22:03;;;;;;;21.48;4.90;;;6.20;99.90;;;;;;5065442;28;20033;-62
2022/01/18 07:24:38;;;;;;;11.38;4.25;;;6.00;99.90;;;;;;5061768;28;20037;-62
2022/01/18 07:27:08;;;;;;;17.92;4.70;;;6.10;99.90;;;;;;5054450;28;20048;-63
2022/01/18 07:29:34;;;;;;;12.23;4.95;;;6.00;99.90;;;;;;5060392;28;20440;-63
2022/01/18 07:31:59;;;;;;;14.90;4.80;;;5.90;99.90;;;;;;5065789;28;20033;-61
2022/01/18 07:34:26;;;;;;;17.85;4.97;;;5.90;99.90;;;;;;5065928;28;20504;-61
2022/01/18 07:36:52;;;;;;;16.65;5.95;;;;;;;;;;5063942;28;20076;-61
2022/01/18 07:39:18;;;;;;;21.00;5.63;;;;;;;;;;5038113;28;20080;-61
2022/01/18 07:41:43;;;;;;;17.48;6.15;;;6.10;99.90;;;;;;5052411;28;20040;-61
2022/01/18 07:44:09;;;;;;;17.25;6.38;;;6.00;99.90;;;;;;5051782;28;20053;-61
2022/01/18 07:46:35;;;;;;;18.70;6.07;;;;;;;;;;5068775;28;20044;-61
2022/01/18 07:49:01;;;;;;;20.67;5.88;;;6.10;99.90;;;;;;5066379;28;20501;-61
2022/01/18 07:51:26;;;;;;;32.30;6.80;;;6.10;99.90;;;;;;5061867;28;20051;-61
2022/01/18 07:53:52;;;;;;;19.08;6.63;;;6.10;99.90;;;;;;5051688;28;20047;-61
2022/01/18 07:56:17;;;;;;;20.65;7.47;;;6.10;99.90;;;;;;5057732;28;20116;-61
2022/01/18 07:58:43;;;;;;;24.27;6.93;;;6.00;99.90;;;;;;5066608;28;20124;-61
2022/01/18 08:01:08;;;;;;;22.50;7.00;;;6.20;99.90;;;;;;5065465;28;20528;-61
2022/01/18 08:03:34;;;;;;;18.65;6.63;;;6.30;99.90;;;;;;5069785;28;20036;-61
2022/01/18 08:06:01;;;;;;;23.35;6.85;;;6.10;99.90;;;;;;5066608;28;20040;-61
2022/01/18 08:08:26;;;;;;;20.25;7.40;;;6.40;99.90;;;;;;5074974;28;20032;-61
2022/01/18 08:10:53;;;;;;;17.27;6.43;;;;;;;;;;5060095;28;20055;-61
2022/01/18 08:13:24;;;;;;;24.02;7.05;;;;;;;;;;5050612;28;20098;-64
2022/01/18 08:15:58;;;;;;;23.42;6.63;;;6.10;99.90;;;;;;5057040;28;20110;-63
2022/01/18 08:18:23;;;;;;;20.98;6.90;;;6.20;99.90;;;;;;5066835;28;20551;-64
2022/01/18 08:20:49;;;;;;;23.90;6.97;;;;;;;;;;5066212;28;20029;-62
2022/01/18 08:23:15;;;;;;;27.27;7.28;;;6.20;99.90;;;;;;5064535;28;20036;-62
2022/01/18 08:25:40;;;;;;;27.75;7.75;;;6.30;99.90;;;;;;5060024;28;20048;-64
2022/01/18 08:28:06;;;;;;;12.90;6.38;;;6.20;99.90;;;;;;5052607;28;20124;-63
2022/01/18 08:30:32;;;;;;;30.10;7.15;;;6.30;99.90;;;;;;5070848;28;20044;-63
2022/01/18 08:32:57;;;;;;;18.30;6.57;;;6.30;99.90;;;;;;5056321;28;20045;-62
2022/01/18 08:35:24;;;;;;;27.88;7.18;;;;;;;;;;5071786;28;20044;-63
2022/01/18 08:37:51;;;;;;;21.73;6.70;;;;;;;;;;5074823;28;20401;-63
2022/01/18 08:40:16;;;;;;;20.98;6.10;;;6.20;99.90;;;;;;5059322;28;20165;-63
2022/01/18 08:42:43;;;;;;;29.65;6.35;;;6.30;99.90;;;;;;5057444;28;20550;-62
2022/01/18 08:45:09;;;;;;;24.55;6.57;;;6.30;99.90;;;;;;5082543;28;20097;-63
2022/01/18 08:47:35;;;;;;;24.80;6.97;;;6.30;99.90;;;;;;5063085;28;20372;-63
2022/01/18 08:50:01;;;;;;;19.98;6.22;;;6.30;99.90;;;;;;5070197;28;20051;-63
2022/01/18 08:52:27;;;;;;;19.52;6.13;;;6.40;99.90;;;;;;5069963;28;20082;-64
2022/01/18 08:54:52;;;;;;;19.45;6.20;;;6.40;99.90;;;;;;5056780;28;20049;-63
2022/01/18 08:57:18;;;;;;;17.73;6.63;;;6.40;99.90;;;;;;5049203;28;20055;-64
2022/01/18 08:59:44;;;;;;;18.08;5.75;;;;;;;;;;5065892;28;20053;-63
2022/01/18 09:02:11;;;;;;;17.60;6.30;;;6.40;99.90;;;;;;5051384;28;20052;-63
2022/01/18 09:04:37;;;;;;;15.05;5.65;;;6.50;99.90;;;;;;5065608;28;20041;-63
2022/01/18 09:07:08;;;;;;;20.42;7.07;;;6.40;99.90;;;;;;5054119;28;20029;-63
2022/01/18 09:09:34;;;;;;;18.80;5.28;;;6.60;99.90;;;;;;5065381;28;20053;-63
2022/01/18 09:12:00;;;;;;;11.73;6.03;;;6.60;99.90;;;;;;5074802;28;20111;-63
2022/01/18 09:14:26;;;;;;;12.98;5.32;;;6.60;99.90;;;;;;5050917;28;20181;-63
2022/01/18 09:16:51;;;;;;;25.65;6.80;;;6.60;99.90;;;;;;5054505;28;20409;-63
2022/01/18 09:19:17;;;;;;;13.77;5.07;;;;;;;;;;5069495;28;20038;-63
2022/01/18 09:21:47;;;;;;;18.17;4.95;;;6.80;99.90;;;;;;5074645;28;20070;-63
2022/01/18 09:24:13;;;;;;;13.73;4.70;;;6.70;99.90;;;;;;5050385;28;20128;-63
2022/01/18 09:26:39;;;;;;;11.60;4.80;;;;;;;;;;5075366;28;20107;-62
2022/01/18 09:29:07;;;;;;;13.80;4.78;;;6.90;99.90;;;;;;5063445;28;20123;-62
2022/01/18 09:31:35;;;;;;;16.83;5.25;;;6.90;99.90;;;;;;5084485;28;20087;-63
2022/01/18 09:34:01;;;;;;;18.60;5.47;;;;;;;;;;5081381;28;20064;-63
2022/01/18 09:36:27;;;;;;;12.43;3.78;;;6.90;99.90;;;;;;5077907;28;20028;-62
2022/01/18 09:38:53;;;;;;;13.50;3.95;;;7.00;99.90;;;;;;5073516;28;20490;-62
2022/01/18 09:41:21;;;;;;;20.13;4.90;;;7.00;99.90;;;;;;5074095;28;20087;-62
2022/01/18 09:43:47;;;;;;;13.63;4.55;;;7.00;99.90;;;;;;5048995;28;20045;-61
2022/01/18 09:46:14;;;;;;;13.35;4.65;;;;;;;;;;5047899;28;20047;-61
2022/01/18 09:48:40;;;;;;;10.20;3.10;;;;;;;;;;5049131;28;20075;-61
2022/01/18 09:51:06;;;;;;;13.40;2.50;;;;;;;;;;5055737;28;20487;-61
2022/01/18 09:53:31;;;;;;;13.60;3.10;;;7.10;99.90;;;;;;5063552;28;20049;-61
2022/01/18 09:55:57;;;;;;;13.25;5.18;;;7.10;99.90;;;;;;5068345;28;20105;-62
2022/01/18 09:58:22;;;;;;;12.43;3.63;;;7.10;99.90;;;;;;5060410;28;20571;-61
2022/01/18 10:00:50;;;;;;;7.45;2.38;;;7.10;99.90;;;;;;5064472;28;20025;-62
2022/01/18 10:03:32;;;;;;;7.40;2.10;;;7.10;99.90;;;;;;5068629;28;20494;-61
2022/01/18 10:05:58;;;;;;;7.90;2.63;;;7.00;99.90;;;;;;5051898;28;20098;-61
2022/01/18 10:08:24;;;;;;;5.47;2.63;;;7.20;99.90;;;;;;5068378;28;20049;-61
2022/01/18 10:10:53;;;;;;;5.60;2.03;;;7.30;99.90;;;;;;5053023;28;20503;-61
2022/01/18 10:13:24;;;;;;;8.52;2.63;;;7.40;99.90;;;;;;5053541;28;20064;-61
2022/01/18 10:16:02;;;;;;;8.90;2.78;;;7.30;99.90;;;;;;5055121;28;20536;-61
2022/01/18 10:18:49;;;;;;;12.55;3.00;;;7.10;99.90;;;;;;5047114;28;20498;-61
2022/01/18 10:21:30;;;;;;;11.10;4.43;;;7.20;99.90;;;;;;5054292;28;20055;-61
2022/01/18 10:24:16;;;;;;;8.07;2.75;;;7.10;99.90;;;;;;5051352;28;20483;-61
2022/01/18 10:26:44;;;;;;;14.98;3.85;;;7.10;99.90;;;;;;5047504;28;20072;-61
2022/01/18 10:29:11;;;;;;;9.27;3.28;;;7.10;99.90;;;;;;5059826;28;20043;-61
2022/01/18 10:31:56;;;;;;;14.75;3.85;;;7.10;99.90;;;;;;5066271;28;20033;-61
2022/01/18 10:34:26;;;;;;;15.50;3.73;;;7.00;99.90;;;;;;5051762;28;20391;-61
2022/01/18 10:37:17;;;;;;;9.10;3.65;;;7.20;99.90;;;;;;5054309;28;20109;-61
2022/01/18 10:39:52;;;;;;;8.13;3.65;;;7.00;99.90;;;;;;5048427;28;20051;-61
2022/01/18 10:42:20;;;;;;;10.95;3.55;;;6.90;99.90;;;;;;5065605;28;20524;-61
2022/01/18 10:44:56;;;;;;;9.40;3.47;;;7.10;99.90;;;;;;5063042;28;20402;-61
2022/01/18 10:47:22;;;;;;;14.02;4.25;;;7.10;99.90;;;;;;5069939;28;20052;-62
2022/01/18 10:49:47;;;;;;;10.75;4.40;;;7.10;99.90;;;;;;5076556;28;20037;-61
2022/01/18 10:52:15;;;;;;;13.50;4.53;;;;;;;;;;5076325;28;20043;-63
2022/01/18 10:54:52;;;;;;;13.75;4.93;;;7.30;99.90;;;;;;5070013;28;20083;-63
2022/01/18 10:57:29;;;;;;;10.90;4.40;;;7.10;99.90;;;;;;5077590;28;20041;-62
2022/01/18 11:00:17;;;;;;;10.20;4.15;;;7.20;99.90;;;;;;5077211;28;20033;-61
2022/01/18 11:02:51;;;;;;;8.00;3.88;;;7.00;99.90;;;;;;5063295;28;20174;-62
2022/01/18 11:05:25;;;;;;;15.90;4.43;;;7.10;99.90;;;;;;5058220;28;20072;-62
2022/01/18 11:07:52;;;;;;;12.25;4.50;;;7.10;99.90;;;;;;5066094;28;20056;-62
2022/01/18 11:10:19;;;;;;;10.15;4.20;;;;;;;;;;5045686;28;20045;-63
2022/01/18 11:12:51;;;;;;;15.55;5.13;;;7.10;99.90;;;;;;5037744;28;20060;-63
2022/01/18 11:15:20;;;;;;;17.27;5.85;;;7.10;99.90;;;;;;5035050;28;20071;-62
2022/01/18 11:17:52;;;;;;;9.05;5.07;;;7.10;99.90;;;;;;5040221;28;20521;-62
2022/01/18 11:20:20;;;;;;;11.85;4.60;;;7.10;99.90;;;;;;5041356;28;20406;-63
2022/01/18 11:22:50;;;;;;;16.77;5.15;;;;;;;;;;5042164;28;20064;-62
2022/01/18 11:25:17;;;;;;;13.43;5.70;;;7.00;99.90;;;;;;5033864;28;20495;-63
2022/01/18 11:27:48;;;;;;;15.70;4.88;;;7.10;99.90;;;;;;5031517;28;20045;-62
2022/01/18 11:30:13;;;;;;;17.98;5.75;;;7.00;99.90;;;;;;5031587;28;20057;-63
2022/01/18 11:32:40;;;;;;;12.45;4.95;;;;;;;;;;5038302;28;20433;-64
2022/01/18 11:35:14;;;;;;;14.80;5.18;;;6.90;99.90;;;;;;5041940;28;20045;-63
2022/01/18 11:38:02;;;;;;;19.63;6.87;;;7.10;99.90;;;;;;5028515;28;20049;-63
2022/01/18 11:40:41;;;;;;;18.73;6.53;;;;;;;;;;5036397;28;20041;-63
2022/01/18 11:43:08;;;;;;;13.20;5.30;;;7.10;99.90;;;;;;5029258;28;20112;-63
2022/01/18 11:45:38;;;;;;;17.15;5.88;;;7.20;99.90;;;;;;5044769;28;20640;-63
2022/01/18 11:48:19;;;;;;;15.65;5.38;;;7.20;99.90;;;;;;5040207;28;20098;-62
2022/01/18 11:50:49;;;;;;;17.73;6.75;;;7.30;99.90;;;;;;5039297;28;20461;-62
2022/01/18 11:53:40;;;;;;;17.77;6.00;;;;;;;;;;5035874;28;20033;-62
2022/01/18 11:56:11;;;;;;;18.25;6.05;;;7.20;99.90;;;;;;5035980;28;20076;-62
2022/01/18 11:58:38;;;;;;;11.50;5.55;;;7.00;99.90;;;;;;5040868;28;20044;-62
2022/01/18 12:01:04;;;;;;;19.10;6.13;;;;;;;;;;5029444;28;20111;-62
2022/01/18 12:03:31;;;;;;;16.45;6.00;;;7.30;99.90;;;;;;5037277;28;20045;-62
2022/01/18 12:06:00;;;;;;;21.33;7.20;;;7.40;99.90;;;;;;5040580;28;20040;-61
2022/01/18 12:08:34;;;;;;;20.35;7.35;;;7.00;99.90;;;;;;5034005;28;20051;-63
2022/01/18 12:11:02;;;;;;;25.13;7.68;;;7.30;99.90;;;;;;5040859;28;20048;-63
2022/01/18 12:13:34;;;;;;;18.73;6.65;;;7.40;99.90;;;;;;5040255;28;20033;-62
2022/01/18 12:16:03;;;;;;;19.73;5.82;;;7.20;99.90;;;;;;5041900;28;20045;-61
2022/01/18 12:18:30;;;;;;;18.45;6.68;;;7.20;99.90;;;;;;5041929;28;20390;-62
2022/01/18 12:20:58;;;;;;;20.30;7.60;;;7.10;99.90;;;;;;5041046;28;20108;-61
2022/01/18 12:23:32;;;;;;;17.75;7.20;;;7.20;99.90;;;;;;5037911;28;20088;-62
2022/01/18 12:26:04;;;;;;;18.20;6.80;;;7.20;99.90;;;;;;5039476;28;20095;-62
2022/01/18 12:34:26;;;;;;;20.45;6.97;;;7.20;99.90;;;;;;5039400;28;20045;-62
2022/01/18 12:37:11;;;;;;;16.05;7.53;;;7.40;99.90;;;;;;5037944;28;20152;-62
2022/01/18 12:45:02;;;;;;;19.67;6.45;;;7.40;99.90;;;;;;5026198;28;20096;-62
2022/01/18 12:47:29;;;;;;;16.13;6.03;;;7.50;99.90;;;;;;5024803;28;20180;-62
2022/01/18 12:49:55;;;;;;;16.85;5.75;;;7.70;99.90;;;;;;5025559;28;20183;-62
2022/01/18 12:52:21;;;;;;;17.67;5.43;;;7.70;99.90;;;;;;5026892;28;20470;-62
2022/01/18 12:54:48;;;;;;;17.58;6.35;;;7.80;99.90;;;;;;5025808;28;20053;-62
2022/01/18 12:57:15;;;;;;;13.68;6.13;;;7.50;99.90;;;;;;5027226;28;20148;-62
2022/01/18 13:00:07;;;;;;;16.58;5.55;;;7.40;99.90;;;;;;5027056;28;20042;-62
2022/01/18 13:02:33;;;;;;;14.35;5.30;;;;;;;;;;5025440;28;20546;-62
2022/01/18 13:05:00;;;;;;;18.58;5.63;;;;;;;;;;5026950;28;20045;-62
2022/01/18 13:07:26;;;;;;;18.15;6.60;;;;;;;;;;5026905;28;20041;-62
2022/01/18 13:09:56;;;;;;;14.90;7.30;;;;;;;;;;5039043;28;20056;-62
2022/01/18 13:12:29;;;;;;;15.82;6.47;;;;;;;;;;5046979;28;20048;-62
2022/01/18 13:14:57;;;;;;;19.45;7.32;;;;;;;;;;5055212;28;20045;-62
2022/01/18 13:23:23;;;;;;;15.32;6.13;;;;;;;;;;5046322;28;20057;-62
2022/01/18 13:25:53;;;;;;;16.60;6.78;;;7.10;99.90;;;;;;5069176;28;20098;-62
2022/01/18 13:28:19;;;;;;;18.15;6.65;;;7.20;99.90;;;;;;5053835;28;20040;-62
2022/01/18 13:30:45;;;;;;;12.25;6.13;;;;;;;;;;5064445;28;20047;-62
2022/01/18 13:33:14;;;;;;;12.63;5.93;;;;;;;;;;5082710;28;20028;-62
2022/01/18 13:35:39;;;;;;;14.18;5.43;;;;;;;;;;5079311;28;20094;-62
2022/01/18 13:38:06;;;;;;;12.77;6.32;;;;;;;;;;5064700;28;20079;-62
2022/01/18 13:40:35;;;;;;;15.15;5.97;;;7.10;99.90;;;;;;5084002;28;20821;-62
2022/01/18 13:43:05;;;;;;;18.27;7.80;;;7.00;99.90;;;;;;5083926;28;20068;-62
2022/01/18 13:45:32;;;;;;;18.95;9.05;;;;;;;;;;5060825;28;20040;-62
2022/01/18 13:47:59;;;;;;;17.00;8.45;;;;;;;;;;5062116;28;20094;-62
2022/01/18 13:50:29;;;;;;;20.45;7.85;;;7.30;99.90;;;;;;5084528;28;20044;-62
2022/01/18 13:53:18;;;;;;;24.35;8.65;;;7.20;99.90;;;;;;5052026;28;20044;-62
2022/01/18 13:55:45;;;;;;;19.73;8.30;;;;;;;;;;5074040;28;20432;-62
2022/01/18 13:58:11;;;;;;;20.38;7.30;;;7.10;99.90;;;;;;5069709;28;20050;-62
2022/01/18 14:00:37;;;;;;;18.73;7.35;;;7.00;99.90;;;;;;5050205;28;20083;-63
2022/01/18 14:03:03;;;;;;;19.42;7.05;;;;;;;;;;5079748;28;20051;-63
2022/01/18 14:05:29;;;;;;;20.55;7.40;;;;;;;;;;5084468;28;20055;-63
2022/01/18 14:08:07;;;;;;;25.80;8.68;;;7.00;99.90;;;;;;5082507;28;20040;-62
2022/01/18 14:10:33;;;;;;;19.30;9.20;;;;;;;;;;5078588;28;20135;-63
2022/01/18 14:12:59;;;;;;;18.92;8.93;;;6.90;99.90;;;;;;5063348;28;20139;-64
2022/01/18 14:15:42;;;;;;;24.27;11.48;;;6.90;99.90;;;;;;5077392;28;20068;-64
2022/01/18 14:18:08;;;;;;;27.20;11.98;;;8.00;99.90;;;;;;5067899;28;20390;-63
2022/01/18 14:20:34;;;;;;;23.20;10.00;;;;;;;;;;5080934;28;20036;-63
2022/01/18 14:23:01;;;;;;;32.15;11.80;;;;;;;;;;5075159;28;20042;-65
2022/01/18 14:25:31;;;;;;;24.60;11.82;;;6.70;99.90;;;;;;5079697;28;20045;-64
2022/01/18 14:28:11;;;;;;;29.40;13.20;;;6.60;99.90;;;;;;5074333;28;20045;-63